Time;durP1;ratioP1;P1;durP2;ratioP2;P2;SDS_P1;SDS_P2;PMS_P1;PMS_P2;Temp;Humidity;BMP_temperature;BMP_pressure;BME280_temperature;BME280_humidity;BME280_pressure;Samples;Min_cycle;Max_cycle;Signal;HPM_P1;HPM_P2
2023/04/28 00:01:35;;;;;;;9.18;3.50;;;;;;;6.77;49.26;95438.06;5041411;28;20025;-75
2023/04/28 00:04:00;;;;;;;8.65;3.00;;;;;;;6.35;50.17;95448.22;5050842;28;20120;-76
2023/04/28 00:06:26;;;;;;;9.88;3.00;;;;;;;6.33;50.21;95417.91;5038538;28;20055;-75
2023/04/28 00:08:51;;;;;;;7.63;3.05;;;;;;;6.66;50.18;95467.13;5032757;28;20036;-75
2023/04/28 00:11:17;;;;;;;6.60;3.08;;;;;;;6.52;50.21;95451.66;5036399;28;20088;-75
2023/04/28 00:13:42;;;;;;;9.75;3.10;;;;;;;6.32;49.98;95435.56;5030416;28;20116;-75
2023/04/28 00:16:07;;;;;;;11.77;3.25;;;;;;;6.57;50.12;95472.00;5030440;28;20523;-75
2023/04/28 00:18:33;;;;;;;5.30;2.88;;;;;;;6.52;50.04;95478.00;5030951;28;20125;-75
2023/04/28 00:20:59;;;;;;;7.45;3.05;;;;;;;6.42;50.17;95440.97;5041226;28;20044;-74
2023/04/28 00:23:24;;;;;;;6.38;3.08;;;;;;;6.46;50.18;95454.47;5042106;28;20060;-75
2023/04/28 00:25:54;;;;;;;14.07;3.60;;;;;;;6.42;50.69;95475.19;5044572;28;20104;-75
2023/04/28 00:28:20;;;;;;;8.25;3.20;;;;;;;6.34;50.40;95457.16;5039605;28;20033;-76
2023/04/28 00:30:46;;;;;;;8.90;3.13;;;;;;;6.33;50.25;95437.13;5032286;28;20496;-75
2023/04/28 00:33:12;;;;;;;11.30;3.30;;;;;;;6.28;50.90;95486.28;5030863;28;20030;-75
2023/04/28 00:35:38;;;;;;;7.47;2.75;;;;;;;6.10;51.03;95467.03;5030008;28;20071;-75
2023/04/28 00:38:03;;;;;;;10.30;3.20;;;;;;;5.98;51.48;95433.94;5030119;28;20040;-75
2023/04/28 00:40:36;;;;;;;6.07;3.22;;;;;;;6.28;51.04;95470.50;5030551;28;20108;-75
2023/04/28 00:43:02;;;;;;;9.00;3.13;;;;;;;6.34;51.28;95467.69;5031581;28;20037;-75
2023/04/28 00:45:27;;;;;;;7.78;3.47;;;;;;;6.09;50.82;95425.97;5035073;28;20033;-77
2023/04/28 00:47:55;;;;;;;7.63;3.08;;;;;;;6.08;51.17;95455.97;5036012;28;20033;-75
2023/04/28 00:50:21;;;;;;;9.18;3.08;;;;;;;5.55;52.08;95422.13;5036202;28;20103;-75
2023/04/28 00:52:46;;;;;;;6.78;3.15;;;;;;;5.59;52.51;95454.00;5030596;28;20116;-75
2023/04/28 00:55:14;;;;;;;12.25;3.30;;;;;;;5.73;52.54;95469.25;5039831;28;20043;-76
2023/04/28 00:57:40;;;;;;;10.73;3.72;;;;;;;5.89;52.11;95467.75;5041652;28;20033;-75
2023/04/28 01:00:06;;;;;;;10.43;3.30;;;;;;;5.91;51.80;95472.78;5043935;28;20040;-76
2023/04/28 01:02:32;;;;;;;8.60;3.63;;;;;;;5.91;52.34;95484.09;5041632;28;20405;-75
2023/04/28 01:04:59;;;;;;;9.60;3.25;;;;;;;5.71;51.71;95433.72;5037363;28;20025;-76
2023/04/28 01:07:24;;;;;;;13.40;3.47;;;;;;;5.91;52.35;95470.94;5048464;28;20032;-76
2023/04/28 01:09:50;;;;;;;9.07;3.10;;;;;;;6.04;51.96;95494.31;5049578;28;20036;-75
2023/04/28 01:12:15;;;;;;;9.23;2.92;;;;;;;5.70;52.10;95426.84;5042829;28;20021;-76
2023/04/28 01:14:41;;;;;;;7.00;3.28;;;;;;;6.22;52.21;95492.53;5032403;28;20036;-76
2023/04/28 01:17:07;;;;;;;8.95;3.55;;;;;;;6.12;51.67;95477.34;5032235;28;20068;-75
2023/04/28 01:19:32;;;;;;;13.07;3.35;;;;;;;6.35;51.47;95505.38;5031530;28;20091;-75
2023/04/28 01:21:58;;;;;;;11.02;3.15;;;;;;;6.09;51.50;95497.06;5035568;28;20069;-75
2023/04/28 01:24:23;;;;;;;8.95;3.17;;;;;;;5.63;52.39;95468.31;5037967;28;20030;-75
2023/04/28 01:26:49;;;;;;;6.78;3.15;;;;;;;5.12;52.95;95412.09;5039309;28;20064;-75
2023/04/28 01:29:14;;;;;;;7.13;2.83;;;;;;;5.40;53.46;95479.69;5046469;28;20083;-76
2023/04/28 01:31:40;;;;;;;8.93;3.60;;;;;;;5.49;53.17;95477.50;5032660;28;20109;-75
2023/04/28 01:34:06;;;;;;;10.80;3.15;;;;;;;5.55;52.97;95469.47;5034857;28;20060;-76
2023/04/28 01:36:32;;;;;;;9.00;3.70;;;;;;;5.85;51.91;95492.91;5048049;28;20579;-76
2023/04/28 01:38:58;;;;;;;6.95;3.20;;;;;;;5.51;52.10;95425.44;5043002;28;20025;-75
2023/04/28 01:41:23;;;;;;;4.82;2.83;;;;;;;5.73;51.98;95485.06;5037815;28;20036;-75
2023/04/28 01:43:49;;;;;;;9.25;3.35;;;;;;;5.67;52.22;95464.16;5043981;28;20040;-76
2023/04/28 01:46:15;;;;;;;6.75;3.47;;;;;;;5.87;51.60;95496.13;5033149;28;20155;-75
2023/04/28 01:48:40;;;;;;;4.50;2.92;;;;;;;5.89;52.07;95498.53;5033965;28;20508;-75
2023/04/28 01:51:05;;;;;;;8.30;3.33;;;;;;;5.11;51.81;95388.69;5034814;28;20124;-75
2023/04/28 01:53:31;;;;;;;7.70;3.30;;;;;;;5.21;51.81;95367.81;5037917;28;20204;-75
2023/04/28 01:55:57;;;;;;;9.07;3.55;;;;;;;5.83;51.51;95466.81;5039572;28;20440;-76
2023/04/28 01:58:23;;;;;;;5.63;3.35;;;;;;;6.24;51.10;95504.44;5039321;28;20026;-76
2023/04/28 02:00:48;;;;;;;8.48;3.25;;;;;;;5.62;51.39;95432.50;5041360;28;20503;-76
2023/04/28 02:03:14;;;;;;;7.25;3.42;;;;;;;6.11;51.25;95466.00;5040382;28;20033;-77
2023/04/28 02:05:39;;;;;;;11.70;3.72;;;;;;;5.49;51.64;95417.00;5041970;28;20044;-77
2023/04/28 02:08:05;;;;;;;6.50;3.53;;;;;;;5.24;51.69;95412.06;5044346;28;20033;-77
2023/04/28 02:10:30;;;;;;;8.35;3.40;;;;;;;5.06;51.27;95352.56;5048010;28;20045;-77
2023/04/28 02:12:56;;;;;;;13.68;3.95;;;;;;;5.29;51.32;95391.91;5050673;28;20032;-76
2023/04/28 02:15:21;;;;;;;7.75;3.55;;;;;;;5.56;51.63;95457.91;5052329;28;20592;-77
2023/04/28 02:17:47;;;;;;;7.55;3.53;;;;;;;5.68;51.23;95474.44;5045777;28;20036;-76
2023/04/28 02:20:13;;;;;;;10.85;3.83;;;;;;;5.65;51.73;95461.75;5033648;28;20033;-77
2023/04/28 02:22:39;;;;;;;10.40;3.33;;;;;;;5.76;51.97;95523.28;5035753;28;20124;-77
2023/04/28 02:25:05;;;;;;;8.55;3.08;;;;;;;4.58;53.41;95437.78;5033277;28;20465;-76
2023/04/28 02:27:30;;;;;;;10.85;3.40;;;;;;;5.05;53.67;95503.44;5033728;28;20033;-77
2023/04/28 02:29:56;;;;;;;12.23;3.67;;;;;;;5.30;53.51;95526.84;5032382;28;20025;-77
2023/04/28 02:32:21;;;;;;;8.82;3.63;;;;;;;5.08;53.64;95475.88;5039489;28;20112;-76
2023/04/28 02:34:52;;;;;;;8.75;3.90;;;;;;;5.10;53.53;95487.78;5042597;28;20032;-76
2023/04/28 02:37:17;;;;;;;6.30;3.25;;;;;;;5.14;53.29;95482.84;5044325;28;20021;-77
2023/04/28 02:39:43;;;;;;;15.25;4.50;;;;;;;5.53;52.93;95513.63;5044943;28;20033;-77
2023/04/28 02:42:08;;;;;;;13.75;3.40;;;;;;;5.74;52.62;95526.13;5033123;28;20025;-76
2023/04/28 02:44:33;;;;;;;10.45;3.10;;;;;;;5.42;52.34;95485.50;5045934;28;20117;-77
2023/04/28 02:47:00;;;;;;;8.35;3.58;;;;;;;5.54;52.57;95530.22;5034277;28;20096;-77
2023/04/28 02:49:26;;;;;;;8.57;3.08;;;;;;;5.21;53.40;95515.88;5050913;28;20025;-77
2023/04/28 02:51:51;;;;;;;14.55;4.07;;;;;;;5.00;53.59;95505.97;5050863;28;20510;-77
2023/04/28 02:54:26;;;;;;;9.88;3.05;;;;;;;5.20;53.20;95524.78;5046974;28;20025;-77
2023/04/28 02:56:51;;;;;;;6.43;3.78;;;;;;;5.41;53.02;95541.81;5034908;28;20029;-77
2023/04/28 02:59:17;;;;;;;9.20;3.80;;;;;;;5.56;53.15;95541.31;5035194;28;20033;-77
2023/04/28 03:01:42;;;;;;;6.68;3.30;;;;;;;5.43;52.68;95521.31;5038977;28;20116;-77
2023/04/28 03:04:07;;;;;;;14.68;4.25;;;;;;;5.60;51.98;95506.41;5031258;28;20098;-76
2023/04/28 03:06:33;;;;;;;9.77;3.45;;;;;;;5.51;51.98;95515.69;5039614;28;20029;-76
2023/04/28 03:08:58;;;;;;;8.40;3.60;;;;;;;5.82;52.54;95546.81;5032932;28;20573;-76
2023/04/28 03:11:24;;;;;;;13.00;4.18;;;;;;;5.97;52.00;95538.44;5031644;28;20580;-76
2023/04/28 03:13:49;;;;;;;11.63;3.67;;;;;;;5.89;51.88;95525.66;5064883;28;20107;-76
2023/04/28 03:16:14;;;;;;;7.55;3.97;;;;;;;5.73;51.71;95481.63;5031152;28;20029;-76
2023/04/28 03:18:40;;;;;;;11.15;3.28;;;;;;;6.20;51.38;95545.44;5031487;28;20179;-76
2023/04/28 03:21:05;;;;;;;11.95;4.47;;;;;;;6.14;51.20;95523.47;5031399;28;20067;-76
2023/04/28 03:23:31;;;;;;;13.15;3.45;;;;;;;6.08;51.04;95523.63;5050005;28;20500;-76
2023/04/28 03:25:56;;;;;;;13.43;3.72;;;;;;;6.18;51.16;95532.50;5050440;28;20181;-77
2023/04/28 03:28:21;;;;;;;9.07;3.88;;;;;;;6.04;51.14;95541.72;5034484;28;20137;-76
2023/04/28 03:30:47;;;;;;;10.95;3.45;;;;;;;5.67;52.02;95516.78;5035758;28;20033;-76
2023/04/28 03:33:12;;;;;;;21.55;4.38;;;;;;;5.80;52.20;95571.75;5037327;28;20399;-76
2023/04/28 03:35:38;;;;;;;8.20;3.95;;;;;;;4.99;52.36;95443.91;5033890;28;20497;-76
2023/04/28 03:38:03;;;;;;;16.75;4.03;;;;;;;5.85;51.78;95563.19;5030972;28;20167;-76
2023/04/28 03:40:29;;;;;;;12.52;3.65;;;;;;;5.91;51.81;95580.69;5039803;28;20423;-76
2023/04/28 03:42:56;;;;;;;10.95;3.40;;;;;;;5.31;52.16;95517.91;5034534;28;20481;-76
2023/04/28 03:45:21;;;;;;;11.35;3.78;;;;;;;5.67;51.89;95569.41;5031328;28;20033;-76
2023/04/28 03:47:47;;;;;;;19.85;3.78;;;;;;;5.79;51.97;95581.53;5045093;28;20058;-76
2023/04/28 03:50:12;;;;;;;9.85;3.63;;;;;;;5.61;52.04;95557.19;5048620;28;20047;-76
2023/04/28 03:52:37;;;;;;;16.63;4.05;;;;;;;5.52;52.31;95571.72;5051346;28;20095;-76
2023/04/28 03:55:03;;;;;;;11.32;3.97;;;;;;;5.57;52.24;95567.38;5051590;28;20048;-76
2023/04/28 03:57:28;;;;;;;10.10;3.33;;;;;;;5.49;52.13;95578.28;5033951;28;20472;-76
2023/04/28 03:59:54;;;;;;;10.82;3.58;;;;;;;4.76;52.26;95489.41;5032752;28;20029;-76
2023/04/28 04:02:19;;;;;;;8.00;3.60;;;;;;;5.12;52.32;95550.63;5035115;28;20132;-77
2023/04/28 04:04:45;;;;;;;9.23;3.38;;;;;;;5.27;52.17;95599.09;5034075;28;20045;-76
2023/04/28 04:07:10;;;;;;;6.18;3.80;;;;;;;5.51;52.52;95625.38;5033803;28;20029;-76
2023/04/28 04:09:35;;;;;;;18.55;4.72;;;;;;;5.50;52.10;95603.53;5029492;28;20037;-76
2023/04/28 04:12:01;;;;;;;27.20;6.00;;;;;;;5.62;51.61;95625.38;5032361;28;20033;-77
2023/04/28 04:14:26;;;;;;;11.80;3.85;;;;;;;5.30;51.73;95605.72;5029573;28;20037;-77
2023/04/28 04:16:52;;;;;;;11.05;4.28;;;;;;;5.21;52.00;95567.66;5028773;28;20029;-77
2023/04/28 04:19:17;;;;;;;8.88;5.07;;;;;;;5.23;51.77;95578.75;5024588;28;20037;-76
2023/04/28 04:21:42;;;;;;;14.77;4.43;;;;;;;5.36;51.78;95589.81;5027135;28;20057;-77
2023/04/28 04:24:08;;;;;;;8.23;4.03;;;;;;;5.58;51.25;95582.13;5026209;28;20427;-77
2023/04/28 04:26:33;;;;;;;16.45;5.30;;;;;;;6.02;51.12;95638.59;5024538;28;20041;-77
2023/04/28 04:28:59;;;;;;;12.48;5.13;;;;;;;5.89;51.06;95648.56;5020614;28;20092;-78
2023/04/28 04:31:24;;;;;;;11.18;4.57;;;;;;;5.54;51.23;95611.75;5022907;28;20148;-77
2023/04/28 04:33:50;;;;;;;16.00;4.00;;;;;;;5.75;50.71;95653.25;5024267;28;20061;-77
2023/04/28 04:36:16;;;;;;;10.35;3.95;;;;;;;4.90;50.74;95514.41;5046797;28;20499;-77
2023/04/28 04:38:41;;;;;;;14.27;3.95;;;;;;;5.40;51.16;95596.25;5025692;28;20159;-77
2023/04/28 04:41:06;;;;;;;15.55;3.88;;;;;;;5.67;50.65;95643.09;5029223;28;20507;-76
2023/04/28 04:43:32;;;;;;;7.40;4.28;;;;;;;5.55;50.67;95626.53;5032355;28;20036;-77
2023/04/28 04:45:58;;;;;;;12.43;3.90;;;;;;;4.04;51.38;95425.78;5023747;28;20267;-77
2023/04/28 04:48:23;;;;;;;8.05;4.20;;;;;;;4.98;52.22;95603.44;5025235;28;20032;-76
2023/04/28 04:50:49;;;;;;;10.13;4.25;;;;;;;5.15;52.30;95650.09;5028625;28;20032;-76
2023/04/28 04:53:14;;;;;;;10.45;4.32;;;;;;;5.20;52.15;95634.41;5031047;28;20029;-77
2023/04/28 04:55:40;;;;;;;11.15;4.45;;;;;;;4.77;52.08;95564.56;5010469;28;20037;-78
2023/04/28 04:58:05;;;;;;;8.52;3.95;;;;;;;4.65;51.84;95548.78;5029317;28;20033;-78
2023/04/28 05:00:31;;;;;;;15.40;3.90;;;;;;;4.97;52.06;95593.13;5018582;28;20044;-78
2023/04/28 05:02:56;;;;;;;12.15;4.47;;;;;;;4.85;51.68;95572.13;5028302;28;20022;-79
2023/04/28 05:05:21;;;;;;;12.32;4.63;;;;;;;5.44;51.74;95676.28;5021144;28;20080;-78
2023/04/28 05:07:47;;;;;;;11.65;4.28;;;;;;;5.03;51.98;95587.78;5022871;28;20029;-78
2023/04/28 05:10:13;;;;;;;11.32;4.18;;;;;;;5.10;51.82;95607.91;5021093;28;20061;-81
2023/04/28 05:12:39;;;;;;;9.20;4.15;;;;;;;5.68;51.22;95671.81;5026133;28;20075;-80
2023/04/28 05:15:06;;;;;;;9.55;4.25;;;;;;;5.00;51.26;95564.59;5030497;28;20645;-80
2023/04/28 05:17:32;;;;;;;9.57;4.38;;;;;;;5.53;51.35;95674.09;5027847;28;20079;-77
2023/04/28 05:19:57;;;;;;;14.93;3.67;;;;;;;5.61;51.47;95676.38;5027345;28;20044;-81
2023/04/28 05:22:23;;;;;;;13.52;4.00;;;;;;;5.49;51.38;95656.38;5031168;28;20118;-78
2023/04/28 05:24:48;;;;;;;19.38;4.22;;;;;;;5.64;50.88;95672.50;5022119;28;20060;-78
2023/04/28 05:27:14;;;;;;;7.97;3.92;;;;;;;5.55;50.58;95647.56;5003978;28;20033;-78
2023/04/28 05:29:40;;;;;;;15.55;4.70;;;;;;;5.34;51.24;95602.41;5023953;28;20040;-78
2023/04/28 05:32:05;;;;;;;12.25;3.80;;;;;;;5.71;50.78;95681.09;5056647;28;20033;-78
2023/04/28 05:34:31;;;;;;;27.20;4.28;;;;;;;5.44;51.28;95631.56;5022646;28;20051;-78
2023/04/28 05:36:56;;;;;;;19.77;9.27;;;;;;;5.38;51.44;95598.28;5021636;28;20474;-78
2023/04/28 05:39:21;;;;;;;16.17;4.45;;;;;;;5.38;51.09;95582.50;5022028;28;20045;-78
2023/04/28 05:41:47;;;;;;;18.70;5.25;;;;;;;5.94;50.76;95662.66;5023868;28;20114;-77
2023/04/28 05:44:12;;;;;;;12.50;3.83;;;;;;;5.48;50.94;95597.72;5023857;28;20083;-77
2023/04/28 05:46:37;;;;;;;9.88;3.78;;;;;;;5.74;50.90;95651.66;5029511;28;20029;-77
2023/04/28 05:49:03;;;;;;;11.07;3.83;;;;;;;5.33;50.50;95576.34;5026228;28;20353;-77
2023/04/28 05:51:28;;;;;;;8.93;3.40;;;;;;;5.72;50.73;95619.53;5028785;28;20041;-78
2023/04/28 05:53:54;;;;;;;6.28;3.03;;;;;;;5.79;50.99;95671.00;5032357;28;20044;-78
2023/04/28 05:56:19;;;;;;;8.00;3.22;;;;;;;5.92;51.39;95669.97;5025425;28;20131;-77
2023/04/28 05:58:46;;;;;;;6.97;3.70;;;;;;;5.87;50.53;95667.22;5028458;28;20516;-75
2023/04/28 06:01:12;;;;;;;13.05;4.55;;;;;;;5.77;51.13;95632.78;5025459;28;20033;-76
2023/04/28 06:03:39;;;;;;;17.25;4.32;;;;;;;5.99;51.28;95656.69;5018454;28;20314;-76
2023/04/28 06:06:05;;;;;;;14.25;4.03;;;;;;;5.98;50.91;95634.00;5018357;28;20436;-77
2023/04/28 06:08:30;;;;;;;15.93;3.72;;;;;;;6.14;50.14;95649.88;5017507;28;20079;-79
2023/04/28 06:10:56;;;;;;;20.30;5.32;;;;;;;6.31;50.81;95657.03;5029641;28;20040;-77
2023/04/28 06:13:21;;;;;;;12.77;4.03;;;;;;;6.07;50.08;95646.59;5019663;28;20511;-78
2023/04/28 06:15:47;;;;;;;11.50;3.42;;;;;;;6.11;50.06;95652.97;5023942;28;20032;-77
2023/04/28 06:18:12;;;;;;;10.13;4.25;;;;;;;5.64;50.20;95567.25;5034657;28;20048;-77
2023/04/28 06:20:37;;;;;;;6.75;3.45;;;;;;;6.35;50.36;95674.78;5030820;28;20110;-76
2023/04/28 06:23:04;;;;;;;21.63;4.07;;;;;;;5.93;50.23;95616.28;5029576;28;20135;-77
2023/04/28 06:25:30;;;;;;;12.07;3.80;;;;;;;6.39;50.46;95678.56;5031256;28;20111;-77
2023/04/28 06:27:55;;;;;;;9.30;3.78;;;;;;;6.31;50.46;95639.41;5030073;28;20033;-77
2023/04/28 06:30:22;;;;;;;12.88;4.15;;;;;;;6.42;49.96;95656.19;5019016;28;20929;-77
2023/04/28 06:32:47;;;;;;;12.63;4.25;;;;;;;6.41;49.50;95652.75;5026300;28;20065;-77
2023/04/28 06:35:15;;;;;;;11.32;5.43;;;;;;;6.54;49.59;95670.94;5022031;28;20847;-77
2023/04/28 06:37:41;;;;;;;8.73;3.53;;;;;;;6.58;49.48;95674.69;5031220;28;20064;-77
2023/04/28 06:40:07;;;;;;;9.82;4.30;;;;;;;6.59;49.35;95663.09;5029200;28;20056;-78
2023/04/28 06:42:32;;;;;;;17.67;4.00;;;;;;;6.23;48.81;95565.25;5022702;28;20046;-79
2023/04/28 06:44:58;;;;;;;9.38;3.75;;;;;;;6.33;48.81;95583.88;5033870;28;20119;-77
2023/04/28 06:47:23;;;;;;;11.18;3.75;;;;;;;6.60;48.56;95608.56;5034156;28;20051;-78
2023/04/28 06:49:49;;;;;;;10.30;3.72;;;;;;;6.95;48.86;95664.50;5035621;28;20123;-77
2023/04/28 06:52:15;;;;;;;9.65;3.95;;;;;;;6.92;48.85;95670.28;5024061;28;20118;-79
2023/04/28 06:54:41;;;;;;;17.40;4.25;;;;;;;6.69;48.95;95643.25;5003811;28;20041;-83
2023/04/28 06:57:06;;;;;;;12.15;3.65;;;;;;;6.28;48.68;95549.50;5028450;28;20040;-81
2023/04/28 06:59:32;;;;;;;7.90;3.70;;;;;;;6.88;48.19;95623.53;5031347;28;20384;-81
2023/04/28 07:01:57;;;;;;;7.82;4.35;;;;;;;6.88;49.05;95613.78;5030808;28;20041;-79
2023/04/28 07:04:23;;;;;;;11.48;4.28;;;;;;;7.26;47.78;95665.00;5033006;28;20572;-79
2023/04/28 07:06:49;;;;;;;8.70;3.58;;;;;;;7.06;48.18;95633.03;5032582;28;20040;-79
2023/04/28 07:09:15;;;;;;;12.68;4.15;;;;;;;7.10;47.44;95631.50;5029871;28;20041;-79
2023/04/28 07:11:40;;;;;;;12.50;4.43;;;;;;;7.32;48.35;95671.97;5024937;28;20041;-77
2023/04/28 07:14:07;;;;;;;11.48;4.43;;;;;;;6.96;46.91;95608.09;5025968;28;20523;-78
2023/04/28 07:16:32;;;;;;;18.85;4.00;;;;;;;7.11;47.08;95633.09;5023349;28;20036;-78
2023/04/28 07:18:58;;;;;;;8.48;3.97;;;;;;;7.21;46.76;95642.00;5007223;28;20029;-79
2023/04/28 07:21:23;;;;;;;8.23;4.05;;;;;;;7.47;46.29;95664.28;5026831;28;20048;-77
2023/04/28 07:23:49;;;;;;;15.10;4.15;;;;;;;7.45;47.18;95649.72;5025243;28;20091;-77
2023/04/28 07:26:15;;;;;;;8.50;4.05;;;;;;;7.20;47.22;95595.53;5028355;28;20040;-77
2023/04/28 07:28:43;;;;;;;11.63;3.85;;;;;;;7.51;45.73;95636.34;5027644;28;20128;-76
2023/04/28 07:31:08;;;;;;;10.98;3.17;;;;;;;7.41;44.56;95606.38;5016783;28;20098;-76
2023/04/28 07:33:34;;;;;;;9.93;3.80;;;;;;;7.61;44.72;95633.06;5020811;28;20042;-77
2023/04/28 07:35:59;;;;;;;10.52;3.40;;;;;;;7.54;44.29;95622.69;5026839;28;20029;-77
2023/04/28 07:38:25;;;;;;;15.35;4.13;;;;;;;7.20;44.35;95563.09;5022323;28;20611;-77
2023/04/28 07:40:50;;;;;;;11.63;3.60;;;;;;;7.22;44.46;95559.19;5016709;28;20455;-78
2023/04/28 07:43:16;;;;;;;7.63;3.40;;;;;;;7.79;44.98;95627.50;5022655;28;20029;-78
2023/04/28 07:45:44;;;;;;;14.82;4.10;;;;;;;7.81;44.03;95624.59;5027042;28;20744;-80
2023/04/28 07:48:09;;;;;;;11.90;3.53;;;;;;;7.70;43.99;95624.47;5020918;28;20038;-78
2023/04/28 07:50:35;;;;;;;9.27;4.10;;;;;;;7.95;43.96;95639.84;5019166;28;20043;-77
2023/04/28 07:53:02;;;;;;;7.63;3.60;;;;;;;7.93;43.89;95612.91;5024278;28;20395;-78
2023/04/28 07:55:28;;;;;;;8.35;3.20;;;;;;;7.84;42.19;95593.25;5023619;28;20036;-77
2023/04/28 07:57:54;;;;;;;11.55;3.22;;;;;;;8.34;43.08;95650.38;5029537;28;20033;-78
2023/04/28 08:00:20;;;;;;;12.98;4.15;;;;;;;8.09;42.78;95632.34;5024571;28;20131;-79
2023/04/28 08:02:45;;;;;;;5.10;3.08;;;;;;;8.38;42.49;95659.41;5016663;28;20029;-77
2023/04/28 08:05:11;;;;;;;10.40;3.40;;;;;;;8.36;42.42;95638.50;5013206;28;20227;-78
2023/04/28 08:07:36;;;;;;;7.10;3.47;;;;;;;8.29;41.21;95629.16;5017325;28;20152;-77
2023/04/28 08:10:03;;;;;;;6.00;3.00;;;;;;;8.56;41.44;95652.97;5022150;28;20461;-76
2023/04/28 08:12:29;;;;;;;8.88;3.40;;;;;;;8.60;41.57;95636.38;5025575;28;20037;-77
2023/04/28 08:14:55;;;;;;;10.93;3.30;;;;;;;8.47;41.19;95629.63;5025825;28;20045;-76
2023/04/28 08:17:21;;;;;;;11.63;3.58;;;;;;;8.59;40.94;95631.34;5029250;28;20032;-77
2023/04/28 08:19:47;;;;;;;12.82;4.80;;;;;;;8.52;40.60;95611.19;5028765;28;20029;-77
2023/04/28 08:22:13;;;;;;;10.38;3.10;;;;;;;8.67;40.42;95620.31;5024932;28;20566;-77
2023/04/28 08:24:39;;;;;;;9.50;3.55;;;;;;;8.98;41.07;95650.50;5028015;28;20132;-77
2023/04/28 08:27:04;;;;;;;10.90;4.00;;;;;;;9.07;41.07;95635.75;5023065;28;20036;-77
2023/04/28 08:29:31;;;;;;;7.57;2.83;;;;;;;8.81;40.68;95587.91;5024938;28;20033;-77
2023/04/28 08:31:57;;;;;;;6.90;3.30;;;;;;;8.98;40.32;95624.03;5025046;28;20059;-77
2023/04/28 08:34:23;;;;;;;9.80;3.78;;;;;;;9.07;40.28;95631.25;5024669;28;20062;-77
2023/04/28 08:36:48;;;;;;;15.38;3.75;;;;;;;9.10;40.72;95636.03;5029785;28;20035;-77
2023/04/28 08:39:13;;;;;;;5.82;2.80;;;;;;;9.21;39.27;95631.63;5028788;28;20052;-76
2023/04/28 08:41:39;;;;;;;43.65;4.80;;;;;;;9.03;40.09;95609.00;5021846;28;20688;-77
2023/04/28 08:44:08;;;;;;;12.20;3.63;;;;;;;9.20;39.51;95619.44;5032155;28;20032;-77
2023/04/28 08:46:35;;;;;;;9.52;2.72;;;;;;;9.11;39.63;95583.91;5030558;28;20029;-78
2023/04/28 08:49:01;;;;;;;8.80;2.80;;;;;;;9.42;40.16;95591.00;5039077;28;20069;-81
2023/04/28 08:51:34;;;;;;;11.52;3.67;;;;;;;9.26;39.68;95558.34;5025619;28;20174;-81
2023/04/28 08:54:04;;;;;;;11.13;4.53;;;;;;;9.48;39.62;95597.91;5023870;28;20024;-79
2023/04/28 08:56:33;;;;;;;7.25;3.28;;;;;;;9.58;39.09;95605.94;5023951;28;20166;-78
2023/04/28 08:59:04;;;;;;;7.18;2.83;;;;;;;9.66;39.05;95625.84;5031880;28;20140;-80
2023/04/28 09:01:30;;;;;;;11.55;3.38;;;;;;;9.30;39.33;95556.00;5029216;28;20072;-80
2023/04/28 09:03:56;;;;;;;10.73;3.42;;;;;;;9.50;39.31;95627.59;5036535;28;20183;-84
2023/04/28 09:06:21;;;;;;;4.88;2.88;;;;;;;8.85;39.50;95532.66;5035244;28;20025;-81
2023/04/28 09:08:47;;;;;;;10.35;3.47;;;;;;;8.66;39.63;95479.38;5036089;28;20025;-82
2023/04/28 09:11:13;;;;;;;12.45;4.07;;;;;;;9.08;40.09;95515.66;5035007;28;20076;-80
2023/04/28 09:13:39;;;;;;;7.68;3.10;;;;;;;9.55;39.48;95582.59;5025431;28;20060;-77
2023/04/28 09:16:06;;;;;;;9.18;3.08;;;;;;;9.74;38.87;95614.75;5023967;28;20547;-77
2023/04/28 09:18:32;;;;;;;4.65;2.60;;;;;;;9.50;39.56;95581.78;5025122;28;20535;-77
2023/04/28 09:21:10;;;;;;;11.95;3.20;;;;;;;9.85;39.45;95608.44;5023053;28;20025;-77
2023/04/28 09:23:47;;;;;;;10.57;3.55;;;;;;;9.70;38.86;95576.59;5030276;28;20052;-77
2023/04/28 09:26:13;;;;;;;4.63;2.50;;;;;;;9.44;38.66;95537.81;5025071;28;20033;-80
2023/04/28 09:28:39;;;;;;;12.38;2.97;;;;;;;9.46;38.65;95536.47;5025448;28;20057;-83
2023/04/28 09:31:05;;;;;;;10.80;3.67;;;;;;;9.64;39.28;95556.44;5026782;28;20087;-78
2023/04/28 09:33:31;;;;;;;6.57;3.28;;;;;;;10.04;37.87;95580.44;5022212;28;20097;-77
2023/04/28 09:35:57;;;;;;;14.85;3.72;;;;;;;10.07;38.72;95571.97;5022097;28;20416;-76
2023/04/28 09:38:22;;;;;;;8.75;3.33;;;;;;;9.84;38.02;95537.19;5024130;28;20029;-77
2023/04/28 09:41:01;;;;;;;10.90;3.75;;;;;;;10.06;37.84;95551.84;5024002;28;20052;-76
2023/04/28 09:43:31;;;;;;;6.03;2.72;;;;;;;10.17;38.00;95584.47;5027604;28;20085;-79
2023/04/28 09:45:58;;;;;;;12.13;3.13;;;;;;;10.11;37.90;95564.31;5004924;28;20124;-80
2023/04/28 09:48:42;;;;;;;15.93;3.55;;;;;;;10.59;38.29;95549.84;5022935;28;21143;-78
2023/04/28 09:51:08;;;;;;;7.97;2.80;;;;;;;11.47;35.94;95570.75;5028048;28;20805;-80
2023/04/28 09:53:37;;;;;;;8.95;2.90;;;;;;;12.04;35.21;95521.69;5018518;28;20529;-79
2023/04/28 09:56:04;;;;;;;12.00;2.50;;;;;;;12.65;32.82;95551.38;5009919;28;20033;-80
2023/04/28 09:58:31;;;;;;;6.15;2.40;;;;;;;13.23;31.56;95520.31;5018973;28;20047;-81
2023/04/28 10:00:59;;;;;;;5.07;2.50;;;;;;;13.82;30.38;95557.22;5021119;28;20094;-80
2023/04/28 10:03:27;;;;;;;5.10;2.72;;;;;;;14.81;28.72;95556.47;5024230;28;20038;-80
2023/04/28 10:05:53;;;;;;;6.57;2.25;;;;;;;15.72;28.01;95553.06;5019680;28;20141;-80
2023/04/28 10:08:23;;;;;;;4.57;2.63;;;;;;;16.48;26.93;95540.81;5016702;28;20037;-81
2023/04/28 10:10:51;;;;;;;3.30;2.33;;;;;;;16.29;26.86;95507.25;5015464;28;20039;-78
2023/04/28 10:13:18;;;;;;;10.48;2.00;;;;;;;16.62;26.16;95543.50;4995356;28;20026;-79
2023/04/28 10:15:45;;;;;;;9.65;2.47;;;;;;;17.43;26.38;95540.72;5015536;28;20083;-79
2023/04/28 10:18:14;;;;;;;8.82;2.13;;;;;;;17.57;24.88;95519.97;5010152;28;20048;-78
2023/04/28 10:20:46;;;;;;;5.13;2.33;;;;;;;18.04;25.26;95553.34;5014533;28;20103;-82
2023/04/28 10:23:37;;;;;;;10.77;2.22;;;;;;;17.86;25.65;95541.75;5023648;28;20490;-79
2023/04/28 10:26:09;;;;;;;13.77;2.25;;;;;;;18.46;25.26;95523.09;5012692;28;20045;-80
2023/04/28 10:28:35;;;;;;;10.13;3.53;;;;;;;19.22;23.90;95549.53;5050958;28;20542;-79
2023/04/28 10:31:10;;;;;;;12.38;2.85;;;;;;;18.93;23.21;95466.06;5023384;28;20059;-80
2023/04/28 10:33:37;;;;;;;4.13;2.15;;;;;;;18.55;23.88;95488.19;5008302;28;20114;-79
2023/04/28 10:36:03;;;;;;;5.03;2.13;;;;;;;19.27;22.50;95517.88;5023629;28;20277;-79
2023/04/28 10:38:29;;;;;;;6.57;2.28;;;;;;;17.91;24.00;95481.78;5022896;28;20045;-79
2023/04/28 10:40:59;;;;;;;6.18;2.20;;;;;;;18.58;24.37;95506.41;5025755;28;20474;-78
2023/04/28 10:43:27;;;;;;;4.37;2.00;;;;;;;18.12;23.13;95523.84;5031202;28;20047;-80
2023/04/28 10:45:53;;;;;;;4.75;2.08;;;;;;;18.07;23.03;95512.47;5024613;28;20524;-79
2023/04/28 10:48:20;;;;;;;6.10;2.50;;;;;;;18.61;23.28;95495.03;5027032;28;20139;-79
2023/04/28 10:51:15;;;;;;;4.47;1.90;;;;;;;17.48;24.83;95521.81;5052410;28;20033;-80
2023/04/28 10:53:43;;;;;;;7.38;2.22;;;;;;;17.98;23.80;95504.38;5019963;28;20052;-79
2023/04/28 10:56:18;;;;;;;8.20;2.33;;;;;;;18.04;23.70;95487.03;5030835;28;20098;-79
2023/04/28 10:58:45;;;;;;;4.63;2.00;;;;;;;18.12;22.80;95472.03;5025896;28;20278;-80
2023/04/28 11:01:23;;;;;;;5.47;2.47;;;;;;;18.84;22.68;95492.97;5022811;28;20041;-79
2023/04/28 11:04:01;;;;;;;12.07;2.55;;;;;;;17.87;23.74;95507.66;5025743;28;20064;-79
2023/04/28 11:06:33;;;;;;;8.25;2.40;;;;;;;17.19;25.07;95501.66;5019670;28;20064;-79
2023/04/28 11:09:03;;;;;;;8.68;2.17;;;;;;;17.43;23.93;95481.75;5023340;28;20040;-79
2023/04/28 11:11:37;;;;;;;9.10;2.13;;;;;;;16.56;23.91;95387.47;5029599;28;20041;-79
2023/04/28 11:14:18;;;;;;;6.78;1.95;;;;;;;17.72;24.54;95492.78;5023482;28;20576;-80
2023/04/28 11:16:55;;;;;;;9.57;3.22;;;;;;;17.99;23.91;95481.03;5014215;28;20171;-83
2023/04/28 11:19:25;;;;;;;4.15;1.98;;;;;;;18.06;22.25;95481.34;5024916;28;20033;-84
2023/04/28 11:21:52;;;;;;;7.93;2.33;;;;;;;18.77;21.84;95474.59;5031765;28;20425;-80
2023/04/28 11:24:17;;;;;;;9.63;1.60;;;;;;;18.97;21.81;95397.13;5023397;28;20110;-79
2023/04/28 11:26:43;;;;;;;7.45;2.10;;;;;;;19.02;21.67;95475.69;5016506;28;20041;-80
2023/04/28 11:29:10;;;;;;;7.53;1.88;;;;;;;18.69;22.08;95463.91;5022101;28;20490;-79
2023/04/28 11:31:36;;;;;;;5.10;2.10;;;;;;;17.73;23.25;95411.22;5025337;28;20097;-80
2023/04/28 11:34:10;;;;;;;5.68;2.50;;;;;;;17.87;24.04;95408.38;5030663;28;20058;-80